Aeroporto :
LOGIN :

Iscrizione | Disclaimer

   EN    FR    IT 

 










Sommario :    VFR   VFR Marginale   IFR   IFR Intensivo   IFR Molto Intensivo
Visibilità : 
Base nubi : 
>= 8 km
>= 3000ft
5 / 8 km
1000 / 3000 ft
1500m / 5 km
500 / 1000 ft
800 / 1500m
200 / 500 ft
< 800m
< 200 ft
Simboli :   Temporali  Nebbia  Neve Forte  Precipitazioni Forti  Vento > 20 kt
SIGMETs :   Varie  Temporali  Ghiacco  Turbolenza  Onda orograficha  Ceneri Vulcaniche







- Altitudine del aeroporto : 26 ft


ETNT - Wittmundhaven AB

ULTIMO METAR :
  • 140320Z 25013KT 9999 FEW015 SCT029 04/02 Q0983 BLU+

METARs OBSOLETI :
  • 140220Z 25011KT 9999 FEW010 SCT026 BKN180 04/01 Q0982 BLU
  • 140145Z 26012KT 9999 SCT008 BKN022 04/02 Q0982 WHT
  • 140120Z 25011G22KT 9999 BKN008 BKN022 04/03 Q0982 GRN

TAF TAF ETNT
Valido dal 14 a 03 ore il 14 a 12 ore UTC


140200Z 1403/1412 24015G25KT 8000 NSW SCT015 BKN030
TEMPO 1403/1412 25020G30KT 4000 -SHRA BKN008 BKN020TCU
PROB30 1408/1412 26020G30KT 2000 -TSGS BKN006 BKN020CB BY ETGL
Nessun NOTAM noto per questo aeroporto.



MetMap, La meteo Aeronautica in un colpo d'occhio ! - Copyright ORBIFLY Dicembre 2007 - Disclaimer

ORBIFLY MET'MAP TEAM :

Programmazione e sviluppo : Alexandra Zaïnal
Concezione e sviluppo : Baudouin d'Aumeries
Co-Programmazione e sviluppo : Marc-Olivier Méhu
Supporto tecnico e logistico : Manuel Goepfert
Aiuto per la traduzione : Arnaldo La Scala

Contatto : metmap@orbifly.com




FONTI E CREDITI :

   NOAA